createdAt,value
2017-06-04T00:00:34.971Z,99.99
2017-06-04T00:01:57.587Z,99.99
2017-06-04T00:03:20.065Z,99.99
2017-06-04T00:04:42.232Z,99.99
2017-06-04T00:06:04.505Z,99.99
2017-06-04T00:07:26.344Z,99.99
2017-06-04T00:08:48.181Z,99.99
2017-06-04T00:10:10.735Z,99.99
2017-06-04T00:11:33.544Z,99.99
2017-06-04T00:12:55.701Z,99.99
2017-06-04T00:14:17.856Z,99.99
2017-06-04T00:15:40.035Z,99.99
2017-06-04T00:17:02.234Z,99.99
2017-06-04T00:18:24.502Z,99.99
2017-06-04T00:19:46.693Z,99.99
2017-06-04T00:21:08.935Z,99.99
2017-06-04T00:22:30.851Z,99.99
2017-06-04T00:23:53.314Z,99.99
2017-06-04T00:25:15.206Z,99.99
2017-06-04T00:26:37.420Z,99.99
2017-06-04T00:27:59.495Z,99.99
2017-06-04T00:29:21.335Z,99.99
2017-06-04T00:30:43.545Z,99.99
2017-06-04T00:32:05.393Z,99.99
2017-06-04T00:33:27.898Z,99.99
2017-06-04T00:34:49.873Z,99.99
2017-06-04T00:36:11.060Z,99.99
2017-06-04T00:37:33.255Z,99.99
2017-06-04T00:38:55.069Z,99.99
2017-06-04T00:40:16.274Z,99.99
2017-06-04T00:41:38.415Z,99.99
2017-06-04T00:43:00.873Z,99.99
2017-06-04T00:44:23.462Z,99.99
2017-06-04T00:45:45.415Z,99.99
2017-06-04T00:47:07.754Z,99.99
2017-06-04T00:48:29.603Z,99.99
2017-06-04T00:49:52.107Z,99.99
2017-06-04T00:51:14.264Z,99.99
2017-06-04T00:52:36.202Z,99.99
2017-06-04T00:53:58.355Z,99.99
2017-06-04T00:55:20.425Z,99.99
2017-06-04T00:56:42.894Z,99.99
2017-06-04T00:58:05.374Z,99.99
2017-06-04T00:59:27.216Z,99.99
2017-06-04T01:00:49.437Z,99.99
2017-06-04T01:02:11.919Z,99.99
2017-06-04T01:03:33.418Z,99.99
2017-06-04T01:04:55.937Z,99.99
2017-06-04T01:06:18.456Z,99.99
2017-06-04T01:07:40.623Z,99.99
2017-06-04T01:09:02.787Z,99.99
2017-06-04T01:10:24.635Z,99.99
2017-06-04T01:11:47.143Z,99.99
2017-06-04T01:13:08.345Z,99.99
2017-06-04T01:14:30.583Z,99.99
2017-06-04T01:15:52.534Z,99.99
2017-06-04T01:17:14.674Z,99.99
2017-06-04T01:18:36.208Z,99.99
2017-06-04T01:19:58.355Z,99.99
2017-06-04T01:21:20.834Z,99.99
2017-06-04T01:22:42.958Z,99.99
2017-06-04T01:24:05.164Z,99.99
2017-06-04T01:25:27.003Z,99.99
2017-06-04T01:26:49.463Z,99.99
2017-06-04T01:28:11.544Z,99.99
2017-06-04T01:29:32.754Z,99.99
2017-06-04T01:30:54.984Z,99.99
2017-06-04T01:32:16.571Z,99.99
2017-06-04T01:33:38.751Z,99.99
2017-06-04T01:35:00.891Z,99.99
2017-06-04T01:36:22.794Z,99.99
2017-06-04T01:37:44.645Z,99.99
2017-06-04T01:39:07.073Z,99.99
2017-06-04T01:40:28.753Z,99.99
2017-06-04T01:41:50.267Z,99.99
2017-06-04T01:43:12.467Z,99.99
2017-06-04T01:44:34.914Z,99.99
2017-06-04T01:45:56.752Z,99.99
2017-06-04T01:47:18.581Z,99.99
2017-06-04T01:48:40.255Z,99.99
2017-06-04T01:50:02.972Z,99.99
2017-06-04T01:51:24.472Z,99.99
2017-06-04T01:52:46.661Z,99.99
2017-06-04T01:54:08.161Z,99.99
2017-06-04T01:55:30.864Z,99.99
2017-06-04T01:56:53.014Z,99.99
2017-06-04T01:58:15.164Z,99.99
2017-06-04T01:59:37.382Z,99.99
2017-06-04T02:01:00.198Z,99.99
2017-06-04T02:02:22.421Z,99.99
2017-06-04T02:03:43.925Z,99.99
2017-06-04T02:05:05.745Z,99.99
2017-06-04T02:06:28.190Z,99.99
2017-06-04T02:07:50.632Z,99.99
2017-06-04T02:09:12.448Z,99.99
2017-06-04T02:10:34.610Z,99.99
2017-06-04T02:11:57.360Z,99.99
2017-06-04T02:13:19.203Z,99.99
2017-06-04T02:14:41.659Z,99.99
2017-06-04T02:16:03.194Z,99.99
2017-06-04T02:17:25.883Z,99.99
2017-06-04T02:18:47.717Z,99.99
2017-06-04T02:20:10.141Z,99.99
2017-06-04T02:21:32.293Z,99.99
2017-06-04T02:22:54.411Z,99.99
2017-06-04T02:24:15.913Z,99.99
2017-06-04T02:25:37.751Z,99.99
2017-06-04T02:26:59.582Z,99.99
2017-06-04T02:28:22.090Z,99.99
2017-06-04T02:29:43.293Z,99.99
2017-06-04T02:31:05.183Z,99.99
2017-06-04T02:32:27.234Z,99.99
2017-06-04T02:33:49.439Z,99.99
2017-06-04T02:35:11.345Z,99.99
2017-06-04T02:36:33.184Z,99.99
2017-06-04T02:37:55.651Z,99.99
2017-06-04T02:39:17.423Z,99.99
2017-06-04T02:40:38.927Z,99.99
2017-06-04T02:42:01.403Z,99.99
2017-06-04T02:43:23.213Z,99.99
2017-06-04T02:44:45.978Z,99.99
2017-06-04T02:46:08.132Z,99.99
2017-06-04T02:47:30.003Z,99.99
2017-06-04T02:48:52.154Z,99.99
2017-06-04T02:50:14.960Z,99.99
2017-06-04T02:51:37.117Z,99.99
2017-06-04T02:52:58.633Z,99.99
2017-06-04T02:54:20.134Z,99.99
2017-06-04T02:55:42.269Z,99.99
2017-06-04T02:57:04.732Z,99.99
2017-06-04T02:58:26.706Z,99.99
2017-06-04T02:59:48.843Z,99.99
2017-06-04T03:01:11.020Z,99.99
2017-06-04T03:02:33.272Z,99.99
2017-06-04T03:03:55.408Z,99.99
2017-06-04T03:05:16.923Z,99.99
2017-06-04T03:06:39.699Z,99.99
2017-06-04T03:08:02.184Z,99.99
2017-06-04T03:09:24.323Z,99.99
2017-06-04T03:10:46.147Z,99.99
2017-06-04T03:12:08.523Z,99.99
2017-06-04T03:13:30.335Z,99.99
2017-06-04T03:14:52.468Z,99.99
2017-06-04T03:16:13.959Z,99.99
2017-06-04T03:17:36.411Z,99.99
2017-06-04T03:18:58.263Z,99.99
2017-06-04T03:20:20.421Z,99.99
2017-06-04T03:21:42.265Z,99.99
2017-06-04T03:23:04.660Z,99.99
2017-06-04T03:24:26.803Z,99.99
2017-06-04T03:25:48.931Z,99.99
2017-06-04T03:27:10.179Z,99.99
2017-06-04T03:28:32.375Z,99.99
2017-06-04T03:29:54.575Z,99.99
2017-06-04T03:31:16.390Z,99.99
2017-06-04T03:32:38.214Z,99.99
2017-06-04T03:34:00.663Z,99.99
2017-06-04T03:35:22.162Z,99.99
2017-06-04T03:36:43.979Z,99.99
2017-06-04T03:38:06.438Z,99.99
2017-06-04T03:39:28.353Z,99.99
2017-06-04T03:40:50.194Z,99.99
2017-06-04T03:42:11.883Z,99.99
2017-06-04T03:43:34.050Z,99.99
2017-06-04T03:44:56.462Z,99.99
2017-06-04T03:46:17.743Z,99.99
2017-06-04T03:47:39.898Z,99.99
2017-06-04T03:49:02.054Z,99.99
2017-06-04T03:50:24.808Z,99.99
2017-06-04T03:51:46.642Z,99.99
2017-06-04T03:53:08.801Z,99.99
2017-06-04T03:54:30.963Z,99.99
2017-06-04T03:55:53.046Z,99.99
2017-06-04T03:57:15.199Z,99.99
2017-06-04T03:58:36.763Z,99.99
2017-06-04T03:59:58.251Z,99.99
2017-06-04T04:01:20.491Z,99.99
2017-06-04T04:02:42.962Z,99.99
2017-06-04T04:04:05.541Z,99.99
2017-06-04T04:05:27.371Z,99.99
2017-06-04T04:06:48.831Z,99.99
2017-06-04T04:08:11.111Z,99.99
2017-06-04T04:09:32.944Z,99.99
2017-06-04T04:10:54.134Z,99.99
2017-06-04T04:12:16.589Z,99.99
2017-06-04T04:13:38.413Z,99.99
2017-06-04T04:15:00.566Z,99.99
2017-06-04T04:16:21.838Z,99.99
2017-06-04T04:17:44.602Z,99.99
2017-06-04T04:19:06.108Z,99.99
2017-06-04T04:20:27.950Z,99.99
2017-06-04T04:21:50.043Z,99.99
2017-06-04T04:23:12.211Z,99.99
2017-06-04T04:24:34.058Z,99.99
2017-06-04T04:25:55.573Z,99.99
2017-06-04T04:27:18.163Z,99.99
2017-06-04T04:28:40.624Z,99.99
2017-06-04T04:30:02.803Z,99.99
2017-06-04T04:31:24.106Z,99.99
2017-06-04T04:32:45.929Z,99.99
2017-06-04T04:34:08.394Z,99.99
2017-06-04T04:35:30.554Z,99.99
2017-06-04T04:36:52.767Z,99.99
2017-06-04T04:38:14.629Z,99.99
2017-06-04T04:39:36.783Z,99.99
2017-06-04T04:40:59.343Z,99.99
2017-06-04T04:42:21.170Z,99.99
2017-06-04T04:43:43.008Z,99.99
2017-06-04T04:45:05.944Z,99.99
2017-06-04T04:46:28.092Z,99.99
2017-06-04T04:47:49.598Z,99.99
2017-06-04T04:49:11.173Z,99.99
2017-06-04T04:50:33.361Z,99.99
2017-06-04T04:51:55.513Z,99.99
2017-06-04T04:53:17.968Z,99.99
2017-06-04T04:54:40.122Z,99.99
2017-06-04T04:56:02.659Z,99.99
2017-06-04T04:57:25.112Z,99.99
2017-06-04T04:58:47.319Z,99.99
2017-06-04T05:00:09.625Z,99.99
2017-06-04T05:01:31.442Z,99.99
2017-06-04T05:02:53.609Z,99.99
2017-06-04T05:04:15.133Z,99.99
2017-06-04T05:05:37.376Z,99.99
2017-06-04T05:06:59.508Z,99.99
2017-06-04T05:08:21.349Z,99.99
2017-06-04T05:09:43.813Z,99.99
2017-06-04T05:11:05.653Z,99.99
2017-06-04T05:12:27.910Z,99.99
2017-06-04T05:13:50.052Z,99.99
2017-06-04T05:15:11.320Z,99.99
2017-06-04T05:16:33.142Z,99.99
2017-06-04T05:17:55.712Z,99.99
2017-06-04T05:19:17.853Z,99.99
2017-06-04T05:20:40.023Z,99.99
2017-06-04T05:22:01.854Z,99.99
2017-06-04T05:23:23.623Z,99.99
2017-06-04T05:24:45.533Z,99.99
2017-06-04T05:26:07.759Z,99.99
2017-06-04T05:27:29.921Z,99.99
2017-06-04T05:28:51.791Z,99.99
2017-06-04T05:30:13.839Z,99.99
2017-06-04T05:31:35.656Z,99.99
2017-06-04T05:32:57.274Z,99.99
2017-06-04T05:34:20.224Z,99.99
2017-06-04T05:35:42.386Z,99.99
2017-06-04T05:37:04.230Z,99.99
2017-06-04T05:38:26.075Z,99.99
2017-06-04T05:39:48.263Z,99.99
2017-06-04T05:41:10.560Z,99.99
2017-06-04T05:42:32.743Z,99.99
2017-06-04T05:43:54.894Z,99.99
2017-06-04T05:45:17.098Z,99.99
2017-06-04T05:46:39.042Z,99.99
2017-06-04T05:48:00.661Z,99.99
2017-06-04T05:49:22.159Z,99.99
2017-06-04T05:50:44.334Z,99.99
2017-06-04T05:52:06.486Z,99.99
2017-06-04T05:53:28.687Z,99.99
2017-06-04T05:54:50.844Z,99.99
2017-06-04T05:56:12.663Z,99.99
2017-06-04T05:57:34.802Z,99.99
2017-06-04T05:58:56.964Z,99.99
2017-06-04T06:00:18.485Z,99.99
2017-06-04T06:01:40.932Z,99.99
2017-06-04T06:03:03.402Z,99.99
2017-06-04T06:04:24.935Z,99.99
2017-06-04T06:05:47.072Z,99.99
2017-06-04T06:07:09.697Z,99.99
2017-06-04T06:08:31.840Z,99.99
2017-06-04T06:09:53.428Z,99.99
2017-06-04T06:11:15.594Z,99.99
2017-06-04T06:12:38.289Z,99.99
2017-06-04T06:14:00.446Z,99.99
2017-06-04T06:15:22.890Z,99.99
2017-06-04T06:16:44.409Z,99.99
2017-06-04T06:18:06.559Z,99.99
2017-06-04T06:19:28.395Z,99.99
2017-06-04T06:20:50.554Z,99.99
2017-06-04T06:22:12.804Z,99.99
2017-06-04T06:23:34.935Z,99.99
2017-06-04T06:24:57.084Z,99.99
2017-06-04T06:26:19.234Z,99.99
2017-06-04T06:27:41.071Z,99.99
2017-06-04T06:29:02.727Z,99.99
2017-06-04T06:30:24.904Z,99.99
2017-06-04T06:31:47.384Z,99.99
2017-06-04T06:33:09.900Z,99.99
2017-06-04T06:34:32.305Z,99.99
2017-06-04T06:35:54.830Z,99.99
2017-06-04T06:37:16.355Z,99.99
2017-06-04T06:38:38.184Z,99.99
2017-06-04T06:40:00.334Z,99.99
2017-06-04T06:41:22.522Z,99.99
2017-06-04T06:42:44.717Z,99.99
2017-06-04T06:44:06.981Z,99.99
2017-06-04T06:45:29.045Z,99.99
2017-06-04T06:46:50.555Z,99.99
2017-06-04T06:48:12.708Z,99.99
2017-06-04T06:49:34.562Z,99.99
2017-06-04T06:50:56.694Z,99.99
2017-06-04T06:52:19.160Z,99.99
2017-06-04T06:53:40.391Z,99.99
2017-06-04T06:55:02.541Z,99.99
2017-06-04T06:56:24.706Z,99.99
2017-06-04T06:57:46.854Z,99.99
2017-06-04T06:59:09.007Z,99.99
2017-06-04T07:00:31.175Z,99.99
2017-06-04T07:01:53.701Z,99.99
2017-06-04T07:03:16.183Z,99.99
2017-06-04T07:04:38.347Z,99.99
2017-06-04T07:06:00.205Z,99.99
2017-06-04T07:07:22.898Z,99.99
2017-06-04T07:08:44.794Z,99.99
2017-06-04T07:10:06.959Z,99.99
2017-06-04T07:11:28.802Z,99.99
2017-06-04T07:12:51.573Z,99.99
2017-06-04T07:14:13.101Z,99.99
2017-06-04T07:15:35.384Z,99.99
2017-06-04T07:16:57.514Z,99.99
2017-06-04T07:18:19.284Z,99.99
2017-06-04T07:19:41.453Z,99.99
2017-06-04T07:21:02.956Z,99.99
2017-06-04T07:22:24.808Z,99.99
2017-06-04T07:23:47.655Z,99.99
2017-06-04T07:25:10.135Z,99.99
2017-06-04T07:26:32.347Z,99.99
2017-06-04T07:27:53.883Z,99.99
2017-06-04T07:29:16.015Z,99.99
2017-06-04T07:30:38.153Z,99.99
2017-06-04T07:32:00.634Z,99.99
2017-06-04T07:33:22.147Z,99.96
2017-06-04T07:34:44.869Z,99.25
2017-06-04T07:36:07.024Z,96.85
2017-06-04T07:37:29.240Z,96.7
2017-06-04T07:38:51.136Z,94.01
2017-06-04T07:40:13.276Z,94.59
2017-06-04T07:41:35.143Z,92.86
2017-06-04T07:42:57.404Z,94.69
2017-06-04T07:44:18.697Z,94.31
2017-06-04T07:45:41.226Z,92.57
2017-06-04T07:47:03.722Z,92.38
2017-06-04T07:48:25.295Z,92.57
2017-06-04T07:49:47.798Z,94.21
2017-06-04T07:51:10.245Z,95.98
2017-06-04T07:52:32.154Z,95.98
2017-06-04T07:53:54.335Z,95.84
2017-06-04T07:55:16.216Z,95.07
2017-06-04T07:56:39.047Z,96.94
2017-06-04T07:58:01.524Z,94.49
2017-06-04T07:59:23.426Z,96.03
2017-06-04T08:00:45.917Z,95.03
2017-06-04T08:02:08.465Z,95.03
2017-06-04T08:03:30.436Z,91.38
2017-06-04T08:04:52.981Z,90.94
2017-06-04T08:06:15.138Z,90.27
2017-06-04T08:07:37.646Z,89.31
2017-06-04T08:08:59.185Z,89.83
2017-06-04T08:10:21.377Z,89.16
2017-06-04T08:11:43.556Z,87.82
2017-06-04T08:13:06.424Z,88.01
2017-06-04T08:14:28.415Z,84.64
2017-06-04T08:15:50.574Z,84.26
2017-06-04T08:17:12.461Z,84.07
2017-06-04T08:18:35.225Z,85.8
2017-06-04T08:19:56.761Z,85.32
2017-06-04T08:21:18.752Z,85.89
2017-06-04T08:22:40.984Z,82.57
2017-06-04T08:24:03.246Z,85.27
2017-06-04T08:25:25.421Z,83.92
2017-06-04T08:26:47.922Z,82.71
2017-06-04T08:28:10.085Z,80.6
2017-06-04T08:29:32.627Z,78.86
2017-06-04T08:30:54.816Z,76.56
2017-06-04T08:32:17.371Z,77.13
2017-06-04T08:33:39.205Z,77.81
2017-06-04T08:35:02.185Z,79.28
2017-06-04T08:36:24.645Z,74.19
2017-06-04T08:37:46.533Z,74.29
2017-06-04T08:39:08.695Z,77.36
2017-06-04T08:40:30.515Z,76.59
2017-06-04T08:41:52.692Z,75.05
2017-06-04T08:43:15.187Z,72.74
2017-06-04T08:44:37.674Z,72.94
2017-06-04T08:46:00.086Z,69.18
2017-06-04T08:47:22.270Z,71.88
2017-06-04T08:48:44.421Z,72.52
2017-06-04T08:50:06.563Z,71.3
2017-06-04T08:51:29.305Z,72.36
2017-06-04T08:52:51.152Z,71.01
2017-06-04T08:54:12.995Z,69.28
2017-06-04T08:55:35.258Z,68.8
2017-06-04T08:56:57.442Z,69.47
2017-06-04T08:58:19.606Z,68.51
2017-06-04T08:59:41.775Z,66.71
2017-06-04T09:01:03.934Z,65.75
2017-06-04T09:02:25.772Z,65.56
2017-06-04T09:03:48.256Z,66.81
2017-06-04T09:05:10.517Z,66.14
2017-06-04T09:06:33.015Z,66.81
2017-06-04T09:07:55.239Z,66.71
2017-06-04T09:09:17.737Z,66.14
2017-06-04T09:10:39.914Z,68.16
2017-06-04T09:12:02.195Z,64.53
2017-06-04T09:13:24.719Z,65.4
2017-06-04T09:14:46.905Z,63.57
2017-06-04T09:16:08.755Z,65.5
2017-06-04T09:17:30.950Z,63.5
2017-06-04T09:18:53.858Z,60.55
2017-06-04T09:20:16.001Z,61.03
2017-06-04T09:21:37.843Z,60.55
2017-06-04T09:22:59.715Z,60.9
2017-06-04T09:24:22.534Z,60.55
2017-06-04T09:25:44.715Z,61.22
2017-06-04T09:27:06.886Z,60.96
2017-06-04T09:28:29.388Z,63.44
2017-06-04T09:29:52.172Z,62.09
2017-06-04T09:31:14.675Z,63.44
2017-06-04T09:32:36.852Z,63.18
2017-06-04T09:33:58.765Z,60.35
2017-06-04T09:35:21.504Z,64.4
2017-06-04T09:36:43.723Z,63.15
2017-06-04T09:38:05.558Z,60.64
2017-06-04T09:39:28.059Z,61.13
2017-06-04T09:40:50.547Z,61.8
2017-06-04T09:42:13.059Z,60.45
2017-06-04T09:43:35.653Z,62.57
2017-06-04T09:44:58.233Z,63.54
2017-06-04T09:46:21.030Z,62.66
2017-06-04T09:47:42.668Z,62.76
2017-06-04T09:49:05.361Z,62.7
2017-06-04T09:50:27.923Z,62.79
2017-06-04T09:51:49.714Z,61.93
2017-06-04T09:53:11.576Z,62.76
2017-06-04T09:54:33.243Z,61.13
2017-06-04T09:55:55.737Z,63.63
2017-06-04T09:57:18.324Z,65.17
2017-06-04T09:58:40.596Z,63.92
2017-06-04T10:00:02.756Z,65.75
2017-06-04T10:01:24.928Z,65.27
2017-06-04T10:02:47.583Z,62.57
2017-06-04T10:04:10.120Z,61.13
2017-06-04T10:05:32.389Z,62.15
2017-06-04T10:06:53.922Z,62.54
2017-06-04T10:08:16.763Z,61.8
2017-06-04T10:09:38.694Z,63.44
2017-06-04T10:11:00.870Z,60.42
2017-06-04T10:12:23.034Z,61.38
2017-06-04T10:13:45.134Z,63.98
2017-06-04T10:15:07.690Z,62.25
2017-06-04T10:16:29.615Z,63.34
2017-06-04T10:17:51.460Z,64.98
2017-06-04T10:19:13.684Z,61.99
2017-06-04T10:20:35.544Z,61.13
2017-06-04T10:21:58.274Z,59.55
2017-06-04T10:23:20.741Z,63.12
2017-06-04T10:24:43.153Z,61.96
2017-06-04T10:26:04.674Z,61.35
2017-06-04T10:27:27.342Z,62.99
2017-06-04T10:28:49.815Z,63.67
2017-06-04T10:30:12.694Z,64.05
2017-06-04T10:31:34.544Z,62.15
2017-06-04T10:32:56.775Z,64.21
2017-06-04T10:34:19.243Z,59.8
2017-06-04T10:35:41.706Z,58.26
2017-06-04T10:37:03.560Z,59.13
2017-06-04T10:38:25.724Z,59.8
2017-06-04T10:39:47.918Z,57.87
2017-06-04T10:41:10.452Z,59.78
2017-06-04T10:42:32.743Z,63.31
2017-06-04T10:43:55.223Z,64.47
2017-06-04T10:45:17.400Z,64.4
2017-06-04T10:46:39.842Z,62.09
2017-06-04T10:48:02.354Z,64.98
2017-06-04T10:49:24.901Z,63.34
2017-06-04T10:50:47.390Z,57.46
2017-06-04T10:52:09.553Z,60.55
2017-06-04T10:53:31.071Z,58.14
2017-06-04T10:54:52.613Z,59.58
2017-06-04T10:56:14.784Z,57.17
2017-06-04T10:57:36.890Z,56.59
2017-06-04T10:58:59.369Z,56.52
2017-06-04T11:00:21.613Z,57.85
2017-06-04T11:01:43.515Z,59.61
2017-06-04T11:03:06.013Z,57.9
2017-06-04T11:04:28.559Z,56.2
2017-06-04T11:05:50.144Z,57.26
2017-06-04T11:07:12.609Z,59
2017-06-04T11:08:34.853Z,56.2
2017-06-04T11:09:57.342Z,56.77
2017-06-04T11:11:19.882Z,57.09
2017-06-04T11:12:42.386Z,57.35
2017-06-04T11:14:04.872Z,59.64
2017-06-04T11:15:26.412Z,58.07
2017-06-04T11:16:47.963Z,58.07
2017-06-04T11:18:09.819Z,58.26
2017-06-04T11:19:32.770Z,57.2
2017-06-04T11:20:55.269Z,56.43
2017-06-04T11:22:17.126Z,58.72
2017-06-04T11:23:38.688Z,59
2017-06-04T11:25:01.542Z,61.58
2017-06-04T11:26:23.856Z,60.8
2017-06-04T11:27:46.081Z,61.87
2017-06-04T11:29:08.601Z,62.63
2017-06-04T11:30:31.223Z,58.91
2017-06-04T11:31:53.378Z,61.13
2017-06-04T11:33:15.591Z,59.9
2017-06-04T11:34:37.742Z,57.42
2017-06-04T11:36:00.013Z,55.71
2017-06-04T11:37:22.178Z,54.1
2017-06-04T11:38:44.024Z,53.16
2017-06-04T11:40:05.891Z,52.84
2017-06-04T11:41:28.543Z,51.97
2017-06-04T11:42:50.382Z,52.36
2017-06-04T11:44:12.869Z,50.91
2017-06-04T11:45:35.381Z,53.13
2017-06-04T11:46:58.207Z,52.84
2017-06-04T11:48:20.707Z,52.53
2017-06-04T11:49:42.894Z,54.53
2017-06-04T11:51:05.073Z,55.27
2017-06-04T11:52:27.913Z,55.56
2017-06-04T11:53:49.491Z,53.34
2017-06-04T11:55:12.081Z,54.96
2017-06-04T11:56:34.692Z,56.69
2017-06-04T11:57:56.842Z,54.5
2017-06-04T11:59:18.777Z,55.4
2017-06-04T12:00:41.032Z,54.46
2017-06-04T12:02:03.234Z,54.58
2017-06-04T12:03:25.710Z,51.03
2017-06-04T12:04:48.186Z,52.09
2017-06-04T12:06:09.824Z,51.87
2017-06-04T12:07:32.095Z,51.13
2017-06-04T12:08:54.890Z,50.13
2017-06-04T12:10:17.128Z,51.49
2017-06-04T12:11:38.672Z,51.29
2017-06-04T12:13:00.843Z,50.23
2017-06-04T12:14:23.380Z,50.65
2017-06-04T12:15:45.550Z,50.18
2017-06-04T12:17:07.748Z,51.15
2017-06-04T12:18:29.287Z,49.02
2017-06-04T12:19:51.710Z,47.31
2017-06-04T12:21:13.557Z,46.42
2017-06-04T12:22:35.453Z,46.22
2017-06-04T12:23:57.607Z,50.09
2017-06-04T12:25:20.043Z,48.61
2017-06-04T12:26:42.527Z,51.61
2017-06-04T12:28:05.000Z,50.45
2017-06-04T12:29:26.557Z,47.84
2017-06-04T12:30:48.994Z,47.55
2017-06-04T12:32:11.189Z,48.83
2017-06-04T12:33:33.682Z,48.27
2017-06-04T12:34:55.911Z,47.28
2017-06-04T12:36:18.706Z,47
2017-06-04T12:37:40.571Z,47.96
2017-06-04T12:39:03.060Z,49.07
2017-06-04T12:40:24.993Z,49.92
2017-06-04T12:41:47.838Z,52.14
2017-06-04T12:43:09.683Z,49.46
2017-06-04T12:44:31.841Z,47.36
2017-06-04T12:45:54.380Z,46.49
2017-06-04T12:47:16.892Z,48.32
2017-06-04T12:48:39.072Z,50.16
2017-06-04T12:50:01.558Z,49.77
2017-06-04T12:51:23.795Z,48.9
2017-06-04T12:52:46.581Z,49.37
2017-06-04T12:54:08.740Z,49.53
2017-06-04T12:55:30.901Z,49.7
2017-06-04T12:56:53.411Z,50.76
2017-06-04T12:58:15.658Z,51.34
2017-06-04T12:59:37.830Z,51.73
2017-06-04T13:00:59.361Z,51.99
2017-06-04T13:02:21.540Z,52.47
2017-06-04T13:03:44.380Z,52.69
2017-06-04T13:05:06.531Z,53.95
2017-06-04T13:06:28.724Z,52.69
2017-06-04T13:07:50.570Z,53.95
2017-06-04T13:09:13.303Z,54.24
2017-06-04T13:10:35.503Z,52.57
2017-06-04T13:11:58.045Z,51.82
2017-06-04T13:13:19.881Z,51.8
2017-06-04T13:14:42.342Z,51.99
2017-06-04T13:16:04.502Z,51.8
2017-06-04T13:17:26.353Z,51.12
2017-06-04T13:18:48.514Z,52.55
2017-06-04T13:20:11.323Z,55.15
2017-06-04T13:21:33.202Z,56.33
2017-06-04T13:22:55.682Z,57.01
2017-06-04T13:24:17.881Z,56.72
2017-06-04T13:25:39.982Z,57.04
2017-06-04T13:27:02.160Z,57.71
2017-06-04T13:28:24.640Z,57.9
2017-06-04T13:29:47.125Z,58
2017-06-04T13:31:09.608Z,56.1
2017-06-04T13:32:31.780Z,54.97
2017-06-04T13:33:54.300Z,54.84
2017-06-04T13:35:16.786Z,54.27
2017-06-04T13:36:39.030Z,51.75
2017-06-04T13:38:01.538Z,56.26
2017-06-04T13:39:23.713Z,53.17
2017-06-04T13:40:46.202Z,50.86
2017-06-04T13:42:08.612Z,52.79
2017-06-04T13:43:30.844Z,51.34
2017-06-04T13:44:53.314Z,51.41
2017-06-04T13:46:15.844Z,51.34
2017-06-04T13:47:38.281Z,51.15
2017-06-04T13:49:00.484Z,51.92
2017-06-04T13:50:22.626Z,53.47
2017-06-04T13:51:44.553Z,52.69
2017-06-04T13:53:07.014Z,55.01
2017-06-04T13:54:28.531Z,56.52
2017-06-04T13:55:51.095Z,58.45
2017-06-04T13:57:12.944Z,57.2
2017-06-04T13:58:35.505Z,56.11
2017-06-04T13:59:57.355Z,55.92
2017-06-04T14:01:19.531Z,55.44
2017-06-04T14:02:41.061Z,56.49
2017-06-04T14:04:02.952Z,53.13
2017-06-04T14:05:24.814Z,54.02
2017-06-04T14:06:47.294Z,53.05
2017-06-04T14:08:09.491Z,53.05
2017-06-04T14:09:31.882Z,51.53
2017-06-04T14:10:54.054Z,52.33
2017-06-04T14:12:16.549Z,53.3
2017-06-04T14:13:38.755Z,51.65
2017-06-04T14:15:00.918Z,52.91
2017-06-04T14:16:23.094Z,53.52
2017-06-04T14:17:44.953Z,52.65
2017-06-04T14:19:07.151Z,50.26
2017-06-04T14:20:29.622Z,51.03
2017-06-04T14:21:52.118Z,51.32
2017-06-04T14:23:14.693Z,49.32
2017-06-04T14:24:37.196Z,48.35
2017-06-04T14:25:58.962Z,47.09
2017-06-04T14:27:20.813Z,49.99
2017-06-04T14:28:42.680Z,48.83
2017-06-04T14:30:04.534Z,45.93
2017-06-04T14:31:27.025Z,49.49
2017-06-04T14:32:49.190Z,46.66
2017-06-04T14:34:11.062Z,48.86
2017-06-04T14:35:32.914Z,50.89
2017-06-04T14:36:55.681Z,49.92
2017-06-04T14:38:18.291Z,50.31
2017-06-04T14:39:40.154Z,49.24
2017-06-04T14:41:02.342Z,50.18
2017-06-04T14:42:24.691Z,51.27
2017-06-04T14:43:46.869Z,49.85
2017-06-04T14:45:09.210Z,49.58
2017-06-04T14:46:31.377Z,48.39
2017-06-04T14:47:53.475Z,47.43
2017-06-04T14:49:15.472Z,45.01
2017-06-04T14:50:37.682Z,47.22
2017-06-04T14:52:00.270Z,47.31
2017-06-04T14:53:23.043Z,47.22
2017-06-04T14:54:45.660Z,48.28
2017-06-04T14:56:08.144Z,47.31
2017-06-04T14:57:30.321Z,44.12
2017-06-04T14:58:53.134Z,46.83
2017-06-04T15:00:15.430Z,49.99
2017-06-04T15:01:37.300Z,50.96
2017-06-04T15:02:59.819Z,48.83
2017-06-04T15:04:22.513Z,45.96
2017-06-04T15:05:44.668Z,44.6
2017-06-04T15:07:07.172Z,46.54
2017-06-04T15:08:29.342Z,46.71
2017-06-04T15:09:52.523Z,48.35
2017-06-04T15:11:14.793Z,51.61
2017-06-04T15:12:36.971Z,51.99
2017-06-04T15:13:58.814Z,53.25
2017-06-04T15:15:21.653Z,50.06
2017-06-04T15:16:43.836Z,50.35
2017-06-04T15:18:06.065Z,50.93
2017-06-04T15:19:28.213Z,49.29
2017-06-04T15:20:50.405Z,50.06
2017-06-04T15:22:12.572Z,51.03
2017-06-04T15:23:34.801Z,50.74
2017-06-04T15:24:57.299Z,52.16
2017-06-04T15:26:19.794Z,52.16
2017-06-04T15:27:42.260Z,54.47
2017-06-04T15:29:04.152Z,54.38
2017-06-04T15:30:26.152Z,54.25
2017-06-04T15:31:48.511Z,56.27
2017-06-04T15:33:10.762Z,56.54
2017-06-04T15:34:33.011Z,56.92
2017-06-04T15:35:55.510Z,57.47
2017-06-04T15:37:17.877Z,59.75
2017-06-04T15:38:39.802Z,60.62
2017-06-04T15:40:01.683Z,61.1
2017-06-04T15:41:24.167Z,61.74
2017-06-04T15:42:46.722Z,61.46
2017-06-04T15:44:08.582Z,61.94
2017-06-04T15:45:30.750Z,61.46
2017-06-04T15:46:52.639Z,62.87
2017-06-04T15:48:14.804Z,62.77
2017-06-04T15:49:36.965Z,63.25
2017-06-04T15:50:59.133Z,63.15
2017-06-04T15:52:21.636Z,63.48
2017-06-04T15:53:44.432Z,62.51
2017-06-04T15:55:06.918Z,62.61
2017-06-04T15:56:29.067Z,61.49
2017-06-04T15:57:50.930Z,60.84
2017-06-04T15:59:13.460Z,59.33
2017-06-04T16:00:35.420Z,59.17
2017-06-04T16:01:57.910Z,57.07
2017-06-04T16:03:20.185Z,56.49
2017-06-04T16:04:42.857Z,56.81
2017-06-04T16:06:05.031Z,54.33
2017-06-04T16:07:27.224Z,55.01
2017-06-04T16:08:49.378Z,55.78
2017-06-04T16:10:12.222Z,56.07
2017-06-04T16:11:34.399Z,57.81
2017-06-04T16:12:56.890Z,60.74
2017-06-04T16:14:19.342Z,63.06
2017-06-04T16:15:41.789Z,64.18
2017-06-04T16:17:03.313Z,64.76
2017-06-04T16:18:25.484Z,65.5
2017-06-04T16:19:47.647Z,65.78
2017-06-04T16:21:10.408Z,66.33
2017-06-04T16:22:33.011Z,67.35
2017-06-04T16:23:55.274Z,68.03
2017-06-04T16:25:17.134Z,68.8
2017-06-04T16:26:39.785Z,68.99
2017-06-04T16:28:02.262Z,70.4
2017-06-04T16:29:24.463Z,70.88
2017-06-04T16:30:46.653Z,71.46
2017-06-04T16:32:09.134Z,71.55
2017-06-04T16:33:31.643Z,71.75
2017-06-04T16:34:53.515Z,71.08
2017-06-04T16:36:15.692Z,71.26
2017-06-04T16:37:37.532Z,71.26
2017-06-04T16:38:59.373Z,71.46
2017-06-04T16:40:21.853Z,71.55
2017-06-04T16:41:44.463Z,72.42
2017-06-04T16:43:06.614Z,72.8
2017-06-04T16:44:28.907Z,73
2017-06-04T16:45:51.435Z,73.47
2017-06-04T16:47:12.753Z,74.15
2017-06-04T16:48:35.549Z,73.67
2017-06-04T16:49:57.713Z,74.4
2017-06-04T16:51:20.289Z,74.3
2017-06-04T16:52:42.762Z,74.6
2017-06-04T16:54:05.321Z,76.32
2017-06-04T16:55:27.484Z,75.07
2017-06-04T16:56:49.972Z,73.44
2017-06-04T16:58:12.270Z,72.58
2017-06-04T16:59:34.731Z,71.71
2017-06-04T17:00:56.896Z,71.81
2017-06-04T17:02:19.062Z,71.14
2017-06-04T17:03:41.256Z,69.5
2017-06-04T17:05:03.784Z,68.54
2017-06-04T17:06:26.342Z,68.6
2017-06-04T17:07:48.540Z,68.7
2017-06-04T17:09:10.523Z,68.7
2017-06-04T17:10:33.026Z,67
2017-06-04T17:11:55.539Z,67.86
2017-06-04T17:13:18.169Z,67.38
2017-06-04T17:14:40.643Z,67.1
2017-06-04T17:16:03.257Z,67.68
2017-06-04T17:17:25.466Z,68.44
2017-06-04T17:18:47.658Z,67.45
2017-06-04T17:20:09.829Z,67.74
2017-06-04T17:21:32.366Z,68.41
2017-06-04T17:22:54.545Z,68.31
2017-06-04T17:24:16.752Z,67.93
2017-06-04T17:25:39.242Z,66.68
2017-06-04T17:27:01.797Z,66.3
2017-06-04T17:28:23.966Z,65.91
2017-06-04T17:29:45.825Z,65.46
2017-06-04T17:31:08.015Z,63.73
2017-06-04T17:32:30.182Z,63.83
2017-06-04T17:33:52.104Z,63.92
2017-06-04T17:35:14.342Z,62.8
2017-06-04T17:36:36.531Z,61.71
2017-06-04T17:37:59.103Z,63.64
2017-06-04T17:39:21.721Z,63.45
2017-06-04T17:40:44.295Z,64.79